Saturday, August 30, 2014, 6:30 PM EDT

KESN, Easton / Newman Field

Location: Easton, MD, United States Lat: 38.8
Local Time: 6:30 PM EDT (22:30 GMT) Lon: -76.067
Time Zone: US/Eastern Elev: 72 ft

Show me the last for .
Show Decoded

2014-08-30 17:50 METAR KESN 302150Z 19010KT 10SM FEW040 29/20 A3018 =
2014-08-30 16:50 METAR KESN 302050Z 20008KT 10SM SCT040 30/20 A3019 =
2014-08-30 15:50 METAR KESN 301950Z 17007KT 10SM SCT040 29/19 A3020 =
2014-08-30 14:50 METAR KESN 301850Z 15006KT 10SM SCT030 29/18 A3022 =
2014-08-30 13:45 METAR KESN 301745Z 16005KT 10SM BKN033 BKN039 27/18 A3025 =
2014-08-30 12:50 METAR KESN 301650Z 19008KT 10SM OVC033 27/16 A3026 =
2014-08-30 11:50 METAR KESN 301550Z 20005KT 10SM BKN037 25/17 A3028 =
2014-08-30 10:50 METAR KESN 301450Z 15005KT 10SM SCT043 25/17 A3028 =
2014-08-30 09:50 METAR KESN 301350Z 00000KT 10SM BKN037 BKN042 23/16 A3028 =
2014-08-30 08:50 METAR KESN 301250Z 00000KT 10SM OVC039 21/17 A3028 =
2014-08-30 07:50 METAR KESN 301150Z 00000KT 10SM OVC039 19/19 A3028 =
2014-08-30 06:50 METAR KESN 301050Z 00000KT 10SM BKN041 18/18 A3028 =
2014-08-30 06:25 METAR KESN 301025Z AUTO 11003KT 10SM OVC041 18/18 A3027 RMK AO2 T01770177 =
2014-08-30 06:12 METAR KESN 301013Z AUTO 00000KT 10SM OVC041 18/18 A3027 =
2014-08-30 06:06 METAR KESN 301013Z AUTO 00000KT 10SM OVC041 18/18 A3027 RMK AO2 T01750175 =
2014-08-30 05:53 METAR KESN 300953Z AUTO 00000KT 10SM BKN041 17/17 A3027 RMK AO2 T01700170 =
2014-08-30 05:50 METAR KESN 300950Z 00000KT 10SM BKN041 17/17 A3027 =
2014-08-30 05:30 METAR KESN 300933Z AUTO 00000KT 10SM CLR 17/17 A3026 =
2014-08-30 05:30 METAR KESN 300933Z AUTO 00000KT 10SM CLR 17/17 A3026 RMK AO2 T01700170 =
2014-08-30 05:10 METAR KESN 300912Z AUTO 00000KT 10SM CLR 17/17 A3026 =
2014-08-30 05:09 METAR KESN 300912Z AUTO 00000KT 10SM CLR 17/17 A3026 RMK AO2 T01680168 =
2014-08-30 04:52 METAR KESN 300852Z AUTO 00000KT 10SM SCT041 SCT065 17/17 A3025 RMK AO2 T01730173
                 =
2014-08-30 04:32 METAR KESN 300832Z AUTO 00000KT 10SM BKN041 18/18 A3026 =
2014-08-30 04:27 METAR KESN 300832Z AUTO 00000KT 10SM BKN041 18/18 A3026 RMK AO2 T01750175 =
2014-08-30 04:10 METAR KESN 300812Z AUTO 00000KT 10SM CLR 17/17 A3026 =
2014-08-30 04:09 METAR KESN 300812Z AUTO 00000KT 10SM CLR 17/17 A3026 RMK AO2 T01700170 =
2014-08-30 03:52 METAR KESN 300752Z AUTO 00000KT 10SM CLR 18/18 A3026 RMK AO2 T01780178 =
2014-08-30 03:32 METAR KESN 300732Z AUTO 00000KT 10SM CLR 18/18 A3025 =
2014-08-30 03:28 METAR KESN 300732Z AUTO 00000KT 10SM CLR 18/18 A3025 RMK AO2 T01780178 =
2014-08-30 03:08 METAR KESN 300712Z AUTO 00000KT 10SM SCT050 18/18 A3026 =
2014-08-30 03:07 METAR KESN 300712Z AUTO 00000KT 10SM SCT050 18/18 A3026 RMK AO2 T01810181 =
2014-08-30 02:52 METAR KESN 300652Z AUTO 00000KT 10SM BKN050 19/19 A3026 RMK AO2 T01860186 =
2014-08-30 02:31 METAR KESN 300632Z AUTO 00000KT 10SM OVC050 19/19 A3026 =
2014-08-30 02:27 METAR KESN 300632Z AUTO 00000KT 10SM OVC050 19/19 A3026 RMK AO2 T01870187 =
2014-08-30 02:09 METAR KESN 300612Z AUTO 00000KT 10SM OVC050 19/19 A3027 =
2014-08-30 02:09 METAR KESN 300612Z AUTO 00000KT 10SM OVC050 19/19 A3027 RMK AO2 T01860186 =
2014-08-30 01:52 METAR KESN 300552Z AUTO 00000KT 10SM OVC050 18/18 A3027 RMK AO2 T01830183 =
2014-08-30 01:31 METAR KESN 300532Z AUTO 00000KT 10SM SCT050 18/18 A3027 =
2014-08-30 01:27 METAR KESN 300532Z AUTO 00000KT 10SM SCT050 18/18 A3027 RMK AO2 T01800180 =
2014-08-30 01:12 METAR KESN 300512Z AUTO 00000KT 10SM CLR 18/18 A3027 =
2014-08-30 01:06 METAR KESN 300512Z AUTO 00000KT 10SM CLR 18/18 A3027 RMK AO2 T01800175 =
2014-08-30 00:52 METAR KESN 300452Z AUTO 00000KT 10SM CLR 19/17 A3027 RMK AO2 T01850171 =
2014-08-30 00:29 METAR KESN 300432Z AUTO 00000KT 10SM CLR 19/17 A3027 =
2014-08-30 00:29 METAR KESN 300432Z AUTO 00000KT 10SM CLR 19/17 A3027 RMK AO2 T01850170 =
2014-08-30 00:12 METAR KESN 300412Z AUTO 00000KT 10SM CLR 19/17 A3026 =
2014-08-30 00:10 METAR KESN 300412Z AUTO 00000KT 10SM CLR 19/17 A3026 RMK AO2 T01860170 =
2014-08-29 23:52 METAR KESN 300352Z AUTO 00000KT 10SM CLR 19/17 A3026 RMK AO2 T01880170 =
2014-08-29 23:28 METAR KESN 300332Z AUTO 00000KT 10SM CLR 19/17 A3027 =
2014-08-29 23:28 METAR KESN 300332Z AUTO 00000KT 10SM CLR 19/17 A3027 RMK AO2 T01900167 =
2014-08-29 22:52 METAR KESN 300252Z AUTO 00000KT 10SM CLR 20/16 A3026 RMK AO2 T01950164 =
2014-08-29 22:27 METAR KESN 300232Z AUTO 00000KT 10SM CLR 20/16 A3026 RMK AO2 T01950163 =
2014-08-29 19:50 METAR KESN 292350Z 00000KT 10SM SCK 23/15 A3022 =
2014-08-29 18:50 METAR KESN 292250Z 07003KT 10SM SCT050 25/14 A3021 =

Support USWX by starting your Amazon purchase here.